sensor_id;sensor_type;location;lat;lon;timestamp;temperature;humidity
26081;DHT22;13991;51.174;4.438;2023-07-13T00:01:51;18.50;99.90
26081;DHT22;13991;51.174;4.438;2023-07-13T00:04:18;18.60;99.90
26081;DHT22;13991;51.174;4.438;2023-07-13T00:06:45;18.50;99.90
26081;DHT22;13991;51.174;4.438;2023-07-13T00:09:12;18.30;99.90
26081;DHT22;13991;51.174;4.438;2023-07-13T00:11:39;18.40;99.90
26081;DHT22;13991;51.174;4.438;2023-07-13T00:14:05;18.30;99.90
26081;DHT22;13991;51.174;4.438;2023-07-13T00:16:32;18.40;99.90
26081;DHT22;13991;51.174;4.438;2023-07-13T00:18:58;18.60;99.90
26081;DHT22;13991;51.174;4.438;2023-07-13T00:21:26;18.40;99.90
26081;DHT22;13991;51.174;4.438;2023-07-13T00:23:51;18.40;99.90
26081;DHT22;13991;51.174;4.438;2023-07-13T00:26:17;18.40;99.90
26081;DHT22;13991;51.174;4.438;2023-07-13T00:28:43;18.60;99.90
26081;DHT22;13991;51.174;4.438;2023-07-13T00:31:10;18.40;99.90
26081;DHT22;13991;51.174;4.438;2023-07-13T00:33:40;18.50;99.90
26081;DHT22;13991;51.174;4.438;2023-07-13T00:36:06;18.50;99.90
26081;DHT22;13991;51.174;4.438;2023-07-13T00:38:32;18.50;99.90
26081;DHT22;13991;51.174;4.438;2023-07-13T00:40:58;18.70;99.90
26081;DHT22;13991;51.174;4.438;2023-07-13T00:43:27;18.80;99.90
26081;DHT22;13991;51.174;4.438;2023-07-13T00:48:21;18.80;99.90
26081;DHT22;13991;51.174;4.438;2023-07-13T00:50:51;18.70;99.90
26081;DHT22;13991;51.174;4.438;2023-07-13T00:53:19;18.60;99.90
26081;DHT22;13991;51.174;4.438;2023-07-13T00:55:47;18.50;99.90
26081;DHT22;13991;51.174;4.438;2023-07-13T00:58:14;18.70;99.90
26081;DHT22;13991;51.174;4.438;2023-07-13T01:00:41;18.70;99.90
26081;DHT22;13991;51.174;4.438;2023-07-13T01:03:07;18.60;99.90
26081;DHT22;13991;51.174;4.438;2023-07-13T01:05:34;18.40;99.90
26081;DHT22;13991;51.174;4.438;2023-07-13T01:08:01;18.10;99.90
26081;DHT22;13991;51.174;4.438;2023-07-13T01:10:27;18.20;99.90
26081;DHT22;13991;51.174;4.438;2023-07-13T01:12:53;18.30;99.90
26081;DHT22;13991;51.174;4.438;2023-07-13T01:15:53;18.10;99.90
26081;DHT22;13991;51.174;4.438;2023-07-13T01:18:23;18.10;99.90
26081;DHT22;13991;51.174;4.438;2023-07-13T01:20:58;18.00;99.90
26081;DHT22;13991;51.174;4.438;2023-07-13T01:23:25;18.10;99.90
26081;DHT22;13991;51.174;4.438;2023-07-13T01:25:52;18.10;99.90
26081;DHT22;13991;51.174;4.438;2023-07-13T01:28:19;18.00;99.90
26081;DHT22;13991;51.174;4.438;2023-07-13T01:30:45;18.20;99.90
26081;DHT22;13991;51.174;4.438;2023-07-13T01:33:13;18.20;99.90
26081;DHT22;13991;51.174;4.438;2023-07-13T01:35:40;18.30;99.90
26081;DHT22;13991;51.174;4.438;2023-07-13T01:38:06;18.20;99.90
26081;DHT22;13991;51.174;4.438;2023-07-13T01:40:34;18.20;99.90
26081;DHT22;13991;51.174;4.438;2023-07-13T01:43:00;18.40;99.90
26081;DHT22;13991;51.174;4.438;2023-07-13T01:45:26;18.40;99.90
26081;DHT22;13991;51.174;4.438;2023-07-13T01:47:51;18.30;99.90
26081;DHT22;13991;51.174;4.438;2023-07-13T01:50:17;18.40;99.90
26081;DHT22;13991;51.174;4.438;2023-07-13T01:52:43;18.20;99.90
26081;DHT22;13991;51.174;4.438;2023-07-13T01:55:09;18.20;99.90
26081;DHT22;13991;51.174;4.438;2023-07-13T01:57:34;18.00;99.90
26081;DHT22;13991;51.174;4.438;2023-07-13T02:00:03;17.90;99.90
26081;DHT22;13991;51.174;4.438;2023-07-13T02:02:30;18.00;99.90
26081;DHT22;13991;51.174;4.438;2023-07-13T02:04:56;18.00;99.90
26081;DHT22;13991;51.174;4.438;2023-07-13T02:07:21;18.10;99.90
26081;DHT22;13991;51.174;4.438;2023-07-13T02:09:47;18.30;99.90
26081;DHT22;13991;51.174;4.438;2023-07-13T02:12:13;18.30;99.90
26081;DHT22;13991;51.174;4.438;2023-07-13T02:14:38;18.30;99.90
26081;DHT22;13991;51.174;4.438;2023-07-13T02:17:05;18.20;99.90
26081;DHT22;13991;51.174;4.438;2023-07-13T02:19:31;18.20;99.90
26081;DHT22;13991;51.174;4.438;2023-07-13T02:21:56;18.20;99.90
26081;DHT22;13991;51.174;4.438;2023-07-13T02:24:22;18.30;99.90
26081;DHT22;13991;51.174;4.438;2023-07-13T02:26:48;18.30;99.90
26081;DHT22;13991;51.174;4.438;2023-07-13T02:29:13;18.20;99.90
26081;DHT22;13991;51.174;4.438;2023-07-13T02:31:39;18.30;99.90
26081;DHT22;13991;51.174;4.438;2023-07-13T02:34:05;18.20;99.90
26081;DHT22;13991;51.174;4.438;2023-07-13T02:36:31;18.10;99.90
26081;DHT22;13991;51.174;4.438;2023-07-13T02:39:00;18.10;99.90
26081;DHT22;13991;51.174;4.438;2023-07-13T02:41:26;18.10;99.90
26081;DHT22;13991;51.174;4.438;2023-07-13T02:43:52;18.20;99.90
26081;DHT22;13991;51.174;4.438;2023-07-13T02:46:18;18.30;99.90
26081;DHT22;13991;51.174;4.438;2023-07-13T02:48:45;18.40;99.90
26081;DHT22;13991;51.174;4.438;2023-07-13T02:51:11;18.50;99.90
26081;DHT22;13991;51.174;4.438;2023-07-13T02:53:37;18.50;99.90
26081;DHT22;13991;51.174;4.438;2023-07-13T02:56:03;18.50;99.90
26081;DHT22;13991;51.174;4.438;2023-07-13T02:58:29;18.60;99.90
26081;DHT22;13991;51.174;4.438;2023-07-13T03:00:55;18.40;99.90
26081;DHT22;13991;51.174;4.438;2023-07-13T03:03:21;18.50;99.90
26081;DHT22;13991;51.174;4.438;2023-07-13T03:05:47;18.50;99.90
26081;DHT22;13991;51.174;4.438;2023-07-13T03:08:16;18.50;99.90
26081;DHT22;13991;51.174;4.438;2023-07-13T03:10:43;18.40;99.90
26081;DHT22;13991;51.174;4.438;2023-07-13T03:13:09;18.10;99.90
26081;DHT22;13991;51.174;4.438;2023-07-13T03:15:34;18.20;99.90
26081;DHT22;13991;51.174;4.438;2023-07-13T03:18:00;18.30;99.90
26081;DHT22;13991;51.174;4.438;2023-07-13T03:20:25;18.30;99.90
26081;DHT22;13991;51.174;4.438;2023-07-13T03:22:51;18.30;99.90
26081;DHT22;13991;51.174;4.438;2023-07-13T03:25:17;18.40;99.90
26081;DHT22;13991;51.174;4.438;2023-07-13T03:27:42;18.40;99.90
26081;DHT22;13991;51.174;4.438;2023-07-13T03:30:09;18.40;99.90
26081;DHT22;13991;51.174;4.438;2023-07-13T03:32:34;18.20;99.90
26081;DHT22;13991;51.174;4.438;2023-07-13T03:35:00;18.30;99.90
26081;DHT22;13991;51.174;4.438;2023-07-13T03:37:26;18.30;99.90
26081;DHT22;13991;51.174;4.438;2023-07-13T03:39:52;18.30;99.90
26081;DHT22;13991;51.174;4.438;2023-07-13T03:42:18;18.30;99.90
26081;DHT22;13991;51.174;4.438;2023-07-13T03:44:44;18.40;99.90
26081;DHT22;13991;51.174;4.438;2023-07-13T03:47:16;18.50;99.90
26081;DHT22;13991;51.174;4.438;2023-07-13T03:49:41;18.40;99.90
26081;DHT22;13991;51.174;4.438;2023-07-13T03:52:07;18.50;99.90
26081;DHT22;13991;51.174;4.438;2023-07-13T03:54:33;18.50;99.90
26081;DHT22;13991;51.174;4.438;2023-07-13T03:56:58;18.60;99.90
26081;DHT22;13991;51.174;4.438;2023-07-13T03:59:24;18.50;99.90
26081;DHT22;13991;51.174;4.438;2023-07-13T04:01:49;18.50;99.90
26081;DHT22;13991;51.174;4.438;2023-07-13T04:04:15;18.60;99.90
26081;DHT22;13991;51.174;4.438;2023-07-13T04:06:41;18.40;99.90
26081;DHT22;13991;51.174;4.438;2023-07-13T04:09:07;18.10;99.90
26081;DHT22;13991;51.174;4.438;2023-07-13T04:11:34;18.20;99.90
26081;DHT22;13991;51.174;4.438;2023-07-13T04:14:02;18.20;99.90
26081;DHT22;13991;51.174;4.438;2023-07-13T04:16:28;18.30;99.90
26081;DHT22;13991;51.174;4.438;2023-07-13T04:18:55;18.30;99.90
26081;DHT22;13991;51.174;4.438;2023-07-13T04:21:26;18.30;99.90
26081;DHT22;13991;51.174;4.438;2023-07-13T04:23:52;18.30;99.90
26081;DHT22;13991;51.174;4.438;2023-07-13T04:26:18;18.30;99.90
26081;DHT22;13991;51.174;4.438;2023-07-13T04:28:47;18.20;99.90
26081;DHT22;13991;51.174;4.438;2023-07-13T04:31:13;18.40;99.90
26081;DHT22;13991;51.174;4.438;2023-07-13T04:33:39;18.40;99.90
26081;DHT22;13991;51.174;4.438;2023-07-13T04:36:05;18.60;99.90
26081;DHT22;13991;51.174;4.438;2023-07-13T04:38:32;18.60;99.90
26081;DHT22;13991;51.174;4.438;2023-07-13T04:41:03;18.60;99.90
26081;DHT22;13991;51.174;4.438;2023-07-13T04:43:31;18.60;99.90
26081;DHT22;13991;51.174;4.438;2023-07-13T04:45:57;18.40;99.90
26081;DHT22;13991;51.174;4.438;2023-07-13T04:48:28;18.40;99.90
26081;DHT22;13991;51.174;4.438;2023-07-13T04:50:57;18.40;99.90
26081;DHT22;13991;51.174;4.438;2023-07-13T04:53:24;18.40;99.90
26081;DHT22;13991;51.174;4.438;2023-07-13T04:55:50;18.50;99.90
26081;DHT22;13991;51.174;4.438;2023-07-13T04:58:15;18.40;99.90
26081;DHT22;13991;51.174;4.438;2023-07-13T05:00:41;18.30;99.90
26081;DHT22;13991;51.174;4.438;2023-07-13T05:03:07;18.20;99.90
26081;DHT22;13991;51.174;4.438;2023-07-13T05:05:33;18.40;99.90
26081;DHT22;13991;51.174;4.438;2023-07-13T05:08:00;18.50;99.90
26081;DHT22;13991;51.174;4.438;2023-07-13T05:10:25;18.60;99.90
26081;DHT22;13991;51.174;4.438;2023-07-13T05:12:53;18.80;99.90
26081;DHT22;13991;51.174;4.438;2023-07-13T05:15:23;18.90;99.90
26081;DHT22;13991;51.174;4.438;2023-07-13T05:17:51;18.50;99.90
26081;DHT22;13991;51.174;4.438;2023-07-13T05:20:17;18.60;99.90
26081;DHT22;13991;51.174;4.438;2023-07-13T05:22:50;18.70;99.90
26081;DHT22;13991;51.174;4.438;2023-07-13T05:25:16;19.00;99.90
26081;DHT22;13991;51.174;4.438;2023-07-13T05:27:42;18.90;99.90
26081;DHT22;13991;51.174;4.438;2023-07-13T05:30:12;18.70;99.90
26081;DHT22;13991;51.174;4.438;2023-07-13T05:32:37;18.40;99.90
26081;DHT22;13991;51.174;4.438;2023-07-13T05:35:04;18.40;99.90
26081;DHT22;13991;51.174;4.438;2023-07-13T05:37:32;18.50;99.90
26081;DHT22;13991;51.174;4.438;2023-07-13T05:39:59;18.30;99.90
26081;DHT22;13991;51.174;4.438;2023-07-13T05:42:24;18.40;99.90
26081;DHT22;13991;51.174;4.438;2023-07-13T05:44:50;18.50;99.90
26081;DHT22;13991;51.174;4.438;2023-07-13T05:47:16;18.70;99.90
26081;DHT22;13991;51.174;4.438;2023-07-13T05:49:42;18.50;99.90
26081;DHT22;13991;51.174;4.438;2023-07-13T05:52:08;18.40;99.90
26081;DHT22;13991;51.174;4.438;2023-07-13T05:54:34;18.50;99.90
26081;DHT22;13991;51.174;4.438;2023-07-13T05:56:59;18.60;99.90
26081;DHT22;13991;51.174;4.438;2023-07-13T05:59:25;18.90;99.90
26081;DHT22;13991;51.174;4.438;2023-07-13T06:01:51;18.90;99.90
26081;DHT22;13991;51.174;4.438;2023-07-13T06:04:18;18.90;99.90
26081;DHT22;13991;51.174;4.438;2023-07-13T06:06:44;18.80;99.90
26081;DHT22;13991;51.174;4.438;2023-07-13T06:09:11;18.90;99.90
26081;DHT22;13991;51.174;4.438;2023-07-13T06:11:37;19.10;99.90
26081;DHT22;13991;51.174;4.438;2023-07-13T06:14:03;19.20;99.90
26081;DHT22;13991;51.174;4.438;2023-07-13T06:16:29;19.20;99.90
26081;DHT22;13991;51.174;4.438;2023-07-13T06:18:55;19.40;99.90
26081;DHT22;13991;51.174;4.438;2023-07-13T06:21:22;19.30;99.90
26081;DHT22;13991;51.174;4.438;2023-07-13T06:23:50;19.50;99.90
26081;DHT22;13991;51.174;4.438;2023-07-13T06:26:18;18.90;99.90
26081;DHT22;13991;51.174;4.438;2023-07-13T06:28:44;19.00;99.90
26081;DHT22;13991;51.174;4.438;2023-07-13T06:31:12;19.10;99.90
26081;DHT22;13991;51.174;4.438;2023-07-13T06:33:38;19.10;99.90
26081;DHT22;13991;51.174;4.438;2023-07-13T06:36:08;19.10;99.90
26081;DHT22;13991;51.174;4.438;2023-07-13T06:38:35;19.00;99.90
26081;DHT22;13991;51.174;4.438;2023-07-13T06:41:01;19.00;99.90
26081;DHT22;13991;51.174;4.438;2023-07-13T06:43:27;19.00;99.90
26081;DHT22;13991;51.174;4.438;2023-07-13T06:45:56;19.30;99.90
26081;DHT22;13991;51.174;4.438;2023-07-13T06:48:24;19.40;99.90
26081;DHT22;13991;51.174;4.438;2023-07-13T06:50:50;19.30;99.90
26081;DHT22;13991;51.174;4.438;2023-07-13T06:53:18;19.20;99.90
26081;DHT22;13991;51.174;4.438;2023-07-13T06:55:44;19.20;99.90
26081;DHT22;13991;51.174;4.438;2023-07-13T06:58:10;19.10;99.90
26081;DHT22;13991;51.174;4.438;2023-07-13T07:00:36;19.00;99.90
26081;DHT22;13991;51.174;4.438;2023-07-13T07:03:02;19.20;99.90
26081;DHT22;13991;51.174;4.438;2023-07-13T07:05:31;19.40;99.90
26081;DHT22;13991;51.174;4.438;2023-07-13T07:07:56;19.50;99.90
26081;DHT22;13991;51.174;4.438;2023-07-13T07:10:22;19.10;99.90
26081;DHT22;13991;51.174;4.438;2023-07-13T07:12:48;19.10;99.90
26081;DHT22;13991;51.174;4.438;2023-07-13T07:15:14;19.20;99.90
26081;DHT22;13991;51.174;4.438;2023-07-13T07:17:40;19.40;99.90
26081;DHT22;13991;51.174;4.438;2023-07-13T07:20:06;19.50;99.90
26081;DHT22;13991;51.174;4.438;2023-07-13T07:22:32;19.60;99.90
26081;DHT22;13991;51.174;4.438;2023-07-13T07:25:05;19.80;99.90
26081;DHT22;13991;51.174;4.438;2023-07-13T07:27:31;19.60;99.90
26081;DHT22;13991;51.174;4.438;2023-07-13T07:29:58;19.80;99.90
26081;DHT22;13991;51.174;4.438;2023-07-13T07:32:25;20.10;99.90
26081;DHT22;13991;51.174;4.438;2023-07-13T07:34:52;20.20;99.90
26081;DHT22;13991;51.174;4.438;2023-07-13T07:37:20;20.40;99.90
26081;DHT22;13991;51.174;4.438;2023-07-13T07:39:46;20.20;99.90
26081;DHT22;13991;51.174;4.438;2023-07-13T07:42:11;20.30;99.90
26081;DHT22;13991;51.174;4.438;2023-07-13T07:44:39;20.10;99.90
26081;DHT22;13991;51.174;4.438;2023-07-13T07:47:05;20.20;99.90
26081;DHT22;13991;51.174;4.438;2023-07-13T07:49:31;20.40;99.90
26081;DHT22;13991;51.174;4.438;2023-07-13T07:51:56;20.50;99.90
26081;DHT22;13991;51.174;4.438;2023-07-13T07:54:22;20.60;99.90
26081;DHT22;13991;51.174;4.438;2023-07-13T07:56:48;20.60;99.90
26081;DHT22;13991;51.174;4.438;2023-07-13T07:59:13;20.70;99.90
26081;DHT22;13991;51.174;4.438;2023-07-13T08:01:39;20.70;99.90
26081;DHT22;13991;51.174;4.438;2023-07-13T08:04:05;20.80;99.90
26081;DHT22;13991;51.174;4.438;2023-07-13T08:06:32;20.70;99.90
26081;DHT22;13991;51.174;4.438;2023-07-13T08:08:59;20.80;99.90
26081;DHT22;13991;51.174;4.438;2023-07-13T08:11:27;20.80;99.90
26081;DHT22;13991;51.174;4.438;2023-07-13T08:13:53;20.80;99.90
26081;DHT22;13991;51.174;4.438;2023-07-13T08:16:26;20.30;99.90
26081;DHT22;13991;51.174;4.438;2023-07-13T08:18:52;20.30;99.90
26081;DHT22;13991;51.174;4.438;2023-07-13T08:21:17;20.40;99.90
26081;DHT22;13991;51.174;4.438;2023-07-13T08:23:45;20.50;99.90
26081;DHT22;13991;51.174;4.438;2023-07-13T08:26:11;20.70;99.90
26081;DHT22;13991;51.174;4.438;2023-07-13T08:28:37;20.80;99.90
26081;DHT22;13991;51.174;4.438;2023-07-13T08:31:04;20.90;99.90
26081;DHT22;13991;51.174;4.438;2023-07-13T08:33:30;20.60;99.90
26081;DHT22;13991;51.174;4.438;2023-07-13T08:35:59;20.70;99.90
26081;DHT22;13991;51.174;4.438;2023-07-13T08:38:25;21.00;99.90
26081;DHT22;13991;51.174;4.438;2023-07-13T08:40:53;21.20;99.90
26081;DHT22;13991;51.174;4.438;2023-07-13T08:43:25;21.40;99.90
26081;DHT22;13991;51.174;4.438;2023-07-13T08:46:09;21.70;99.90
26081;DHT22;13991;51.174;4.438;2023-07-13T08:48:58;21.20;99.90
26081;DHT22;13991;51.174;4.438;2023-07-13T08:53:57;21.40;99.90
26081;DHT22;13991;51.174;4.438;2023-07-13T08:56:27;21.70;99.90
26081;DHT22;13991;51.174;4.438;2023-07-13T08:58:57;21.80;99.90
26081;DHT22;13991;51.174;4.438;2023-07-13T09:04:23;21.80;99.90
26081;DHT22;13991;51.174;4.438;2023-07-13T09:09:55;22.10;99.90
26081;DHT22;13991;51.174;4.438;2023-07-13T09:12:40;21.70;99.90
26081;DHT22;13991;51.174;4.438;2023-07-13T09:15:27;22.00;99.90
26081;DHT22;13991;51.174;4.438;2023-07-13T09:17:58;22.30;99.90
26081;DHT22;13991;51.174;4.438;2023-07-13T09:20:49;22.40;99.90
26081;DHT22;13991;51.174;4.438;2023-07-13T09:23:19;22.60;99.90
26081;DHT22;13991;51.174;4.438;2023-07-13T09:25:48;23.00;99.90
26081;DHT22;13991;51.174;4.438;2023-07-13T09:28:18;23.10;99.90
26081;DHT22;13991;51.174;4.438;2023-07-13T09:31:03;23.40;99.90
26081;DHT22;13991;51.174;4.438;2023-07-13T09:36:28;23.20;99.90
26081;DHT22;13991;51.174;4.438;2023-07-13T09:39:19;23.20;99.90
26081;DHT22;13991;51.174;4.438;2023-07-13T09:44:35;22.00;99.90
26081;DHT22;13991;51.174;4.438;2023-07-13T09:47:02;21.50;99.90
26081;DHT22;13991;51.174;4.438;2023-07-13T09:49:37;21.40;99.90
26081;DHT22;13991;51.174;4.438;2023-07-13T09:52:07;21.20;99.90
26081;DHT22;13991;51.174;4.438;2023-07-13T09:54:37;20.90;99.90
26081;DHT22;13991;51.174;4.438;2023-07-13T09:57:11;20.80;99.90
26081;DHT22;13991;51.174;4.438;2023-07-13T09:59:49;20.50;99.90
26081;DHT22;13991;51.174;4.438;2023-07-13T10:02:32;20.50;99.90
26081;DHT22;13991;51.174;4.438;2023-07-13T10:07:29;20.50;99.90
26081;DHT22;13991;51.174;4.438;2023-07-13T10:10:00;20.50;99.90
26081;DHT22;13991;51.174;4.438;2023-07-13T10:12:28;20.60;99.90
26081;DHT22;13991;51.174;4.438;2023-07-13T10:14:57;20.70;99.90
26081;DHT22;13991;51.174;4.438;2023-07-13T10:17:31;20.70;99.90
26081;DHT22;13991;51.174;4.438;2023-07-13T10:20:05;20.60;99.90
26081;DHT22;13991;51.174;4.438;2023-07-13T10:25:20;20.90;99.90
26081;DHT22;13991;51.174;4.438;2023-07-13T10:27:50;21.30;99.90
26081;DHT22;13991;51.174;4.438;2023-07-13T10:30:30;21.40;99.90
26081;DHT22;13991;51.174;4.438;2023-07-13T10:33:00;21.60;99.90
26081;DHT22;13991;51.174;4.438;2023-07-13T10:35:29;21.70;99.90
26081;DHT22;13991;51.174;4.438;2023-07-13T10:38:26;21.70;99.90
26081;DHT22;13991;51.174;4.438;2023-07-13T10:41:02;21.50;99.90
26081;DHT22;13991;51.174;4.438;2023-07-13T10:43:36;21.40;99.90
26081;DHT22;13991;51.174;4.438;2023-07-13T10:46:06;21.30;99.90
26081;DHT22;13991;51.174;4.438;2023-07-13T10:48:34;21.30;99.90
26081;DHT22;13991;51.174;4.438;2023-07-13T10:51:04;21.40;99.90
26081;DHT22;13991;51.174;4.438;2023-07-13T10:53:39;21.20;99.90
26081;DHT22;13991;51.174;4.438;2023-07-13T10:56:33;21.30;99.90
26081;DHT22;13991;51.174;4.438;2023-07-13T10:59:13;21.20;99.90
26081;DHT22;13991;51.174;4.438;2023-07-13T11:02:28;21.40;99.90
26081;DHT22;13991;51.174;4.438;2023-07-13T11:04:46;21.70;99.90
26081;DHT22;13991;51.174;4.438;2023-07-13T11:07:25;22.10;99.90
26081;DHT22;13991;51.174;4.438;2023-07-13T11:09:53;22.40;99.90
26081;DHT22;13991;51.174;4.438;2023-07-13T11:17:34;22.30;99.90
26081;DHT22;13991;51.174;4.438;2023-07-13T11:20:22;22.20;99.90
26081;DHT22;13991;51.174;4.438;2023-07-13T11:25:37;22.00;99.90
26081;DHT22;13991;51.174;4.438;2023-07-13T11:28:24;22.00;99.90
26081;DHT22;13991;51.174;4.438;2023-07-13T11:36:03;21.40;99.90
26081;DHT22;13991;51.174;4.438;2023-07-13T11:38:59;20.90;99.90
26081;DHT22;13991;51.174;4.438;2023-07-13T11:41:56;20.00;99.90
26081;DHT22;13991;51.174;4.438;2023-07-13T11:44:25;19.60;99.90
26081;DHT22;13991;51.174;4.438;2023-07-13T11:46:54;19.30;99.90
26081;DHT22;13991;51.174;4.438;2023-07-13T11:49:22;18.90;99.90
26081;DHT22;13991;51.174;4.438;2023-07-13T11:51:51;18.90;99.90
26081;DHT22;13991;51.174;4.438;2023-07-13T11:54:33;18.60;99.90
26081;DHT22;13991;51.174;4.438;2023-07-13T11:57:39;18.30;99.90
26081;DHT22;13991;51.174;4.438;2023-07-13T12:00:20;18.10;99.90
26081;DHT22;13991;51.174;4.438;2023-07-13T12:02:50;18.00;99.90
26081;DHT22;13991;51.174;4.438;2023-07-13T12:05:18;18.00;99.90
26081;DHT22;13991;51.174;4.438;2023-07-13T12:07:48;18.00;99.90
26081;DHT22;13991;51.174;4.438;2023-07-13T12:12:53;17.80;99.90
26081;DHT22;13991;51.174;4.438;2023-07-13T12:15:21;18.00;99.90
26081;DHT22;13991;51.174;4.438;2023-07-13T12:17:48;18.00;99.90
26081;DHT22;13991;51.174;4.438;2023-07-13T12:20:27;18.20;99.90
26081;DHT22;13991;51.174;4.438;2023-07-13T12:22:56;18.40;99.90
26081;DHT22;13991;51.174;4.438;2023-07-13T12:25:23;18.70;99.90
26081;DHT22;13991;51.174;4.438;2023-07-13T12:27:50;19.00;99.90
26081;DHT22;13991;51.174;4.438;2023-07-13T12:30:29;19.20;99.90
26081;DHT22;13991;51.174;4.438;2023-07-13T12:33:23;19.40;99.90
26081;DHT22;13991;51.174;4.438;2023-07-13T12:35:51;19.50;99.90
26081;DHT22;13991;51.174;4.438;2023-07-13T12:38:21;19.60;99.90
26081;DHT22;13991;51.174;4.438;2023-07-13T12:40:50;19.80;99.90
26081;DHT22;13991;51.174;4.438;2023-07-13T12:43:17;20.00;99.90
26081;DHT22;13991;51.174;4.438;2023-07-13T12:46:01;20.10;99.90
26081;DHT22;13991;51.174;4.438;2023-07-13T12:48:27;20.30;99.90
26081;DHT22;13991;51.174;4.438;2023-07-13T12:50:55;20.40;99.90
26081;DHT22;13991;51.174;4.438;2023-07-13T12:53:29;20.50;99.90
26081;DHT22;13991;51.174;4.438;2023-07-13T12:55:59;20.60;99.90
26081;DHT22;13991;51.174;4.438;2023-07-13T12:58:30;20.70;99.90
26081;DHT22;13991;51.174;4.438;2023-07-13T13:00:59;20.90;99.90
26081;DHT22;13991;51.174;4.438;2023-07-13T13:03:31;21.00;99.90
26081;DHT22;13991;51.174;4.438;2023-07-13T13:08:33;21.00;99.90
26081;DHT22;13991;51.174;4.438;2023-07-13T13:10:59;21.10;99.90
26081;DHT22;13991;51.174;4.438;2023-07-13T13:13:25;21.20;99.90
26081;DHT22;13991;51.174;4.438;2023-07-13T13:15:51;21.10;99.90
26081;DHT22;13991;51.174;4.438;2023-07-13T13:18:19;21.00;99.90
26081;DHT22;13991;51.174;4.438;2023-07-13T13:20:45;21.30;99.90
26081;DHT22;13991;51.174;4.438;2023-07-13T13:23:17;21.50;99.90
26081;DHT22;13991;51.174;4.438;2023-07-13T13:25:44;21.70;99.90
26081;DHT22;13991;51.174;4.438;2023-07-13T13:28:16;22.00;99.90
26081;DHT22;13991;51.174;4.438;2023-07-13T13:30:43;22.30;99.90
26081;DHT22;13991;51.174;4.438;2023-07-13T13:33:11;22.30;99.90
26081;DHT22;13991;51.174;4.438;2023-07-13T13:35:37;22.50;99.90
26081;DHT22;13991;51.174;4.438;2023-07-13T13:38:36;22.40;99.90
26081;DHT22;13991;51.174;4.438;2023-07-13T13:40:55;22.60;99.90
26081;DHT22;13991;51.174;4.438;2023-07-13T13:43:25;22.80;99.90
26081;DHT22;13991;51.174;4.438;2023-07-13T13:45:55;22.80;99.90
26081;DHT22;13991;51.174;4.438;2023-07-13T13:48:33;23.00;99.90
26081;DHT22;13991;51.174;4.438;2023-07-13T13:51:00;23.10;99.90
26081;DHT22;13991;51.174;4.438;2023-07-13T13:53:27;23.30;99.90
26081;DHT22;13991;51.174;4.438;2023-07-13T13:55:53;23.10;99.90
26081;DHT22;13991;51.174;4.438;2023-07-13T13:58:20;23.40;99.90
26081;DHT22;13991;51.174;4.438;2023-07-13T14:00:47;23.40;99.90
26081;DHT22;13991;51.174;4.438;2023-07-13T14:03:23;23.70;99.90
26081;DHT22;13991;51.174;4.438;2023-07-13T14:05:49;23.80;99.90
26081;DHT22;13991;51.174;4.438;2023-07-13T14:08:16;23.90;99.90
26081;DHT22;13991;51.174;4.438;2023-07-13T14:10:43;23.90;99.90
26081;DHT22;13991;51.174;4.438;2023-07-13T14:13:16;23.30;99.90
26081;DHT22;13991;51.174;4.438;2023-07-13T14:15:43;23.00;99.90
26081;DHT22;13991;51.174;4.438;2023-07-13T14:18:09;22.90;99.90
26081;DHT22;13991;51.174;4.438;2023-07-13T14:20:35;23.10;99.90
26081;DHT22;13991;51.174;4.438;2023-07-13T14:23:01;23.20;99.90
26081;DHT22;13991;51.174;4.438;2023-07-13T14:25:27;23.30;99.90
26081;DHT22;13991;51.174;4.438;2023-07-13T14:27:56;23.30;99.90
26081;DHT22;13991;51.174;4.438;2023-07-13T14:30:24;23.30;99.90
26081;DHT22;13991;51.174;4.438;2023-07-13T14:32:50;23.30;99.90
26081;DHT22;13991;51.174;4.438;2023-07-13T14:35:18;23.30;99.90
26081;DHT22;13991;51.174;4.438;2023-07-13T14:37:46;23.40;99.90
26081;DHT22;13991;51.174;4.438;2023-07-13T14:40:26;23.40;99.90
26081;DHT22;13991;51.174;4.438;2023-07-13T14:42:52;23.40;99.90
26081;DHT22;13991;51.174;4.438;2023-07-13T14:45:20;23.50;99.90
26081;DHT22;13991;51.174;4.438;2023-07-13T14:47:46;23.50;99.90
26081;DHT22;13991;51.174;4.438;2023-07-13T14:50:20;23.40;99.90
26081;DHT22;13991;51.174;4.438;2023-07-13T14:52:47;23.40;99.90
26081;DHT22;13991;51.174;4.438;2023-07-13T14:55:16;23.40;99.90
26081;DHT22;13991;51.174;4.438;2023-07-13T14:57:42;23.40;99.90
26081;DHT22;13991;51.174;4.438;2023-07-13T15:00:19;23.40;99.90
26081;DHT22;13991;51.174;4.438;2023-07-13T15:02:49;23.50;99.90
26081;DHT22;13991;51.174;4.438;2023-07-13T15:05:21;23.70;99.90
26081;DHT22;13991;51.174;4.438;2023-07-13T15:07:49;23.80;99.90
26081;DHT22;13991;51.174;4.438;2023-07-13T15:10:23;23.90;99.90
26081;DHT22;13991;51.174;4.438;2023-07-13T15:12:51;23.90;99.90
26081;DHT22;13991;51.174;4.438;2023-07-13T15:15:18;23.80;99.90
26081;DHT22;13991;51.174;4.438;2023-07-13T15:17:46;23.50;99.90
26081;DHT22;13991;51.174;4.438;2023-07-13T15:22:45;23.70;99.90
26081;DHT22;13991;51.174;4.438;2023-07-13T15:25:21;24.10;99.90
26081;DHT22;13991;51.174;4.438;2023-07-13T15:27:47;24.50;99.90
26081;DHT22;13991;51.174;4.438;2023-07-13T15:30:13;24.70;99.90
26081;DHT22;13991;51.174;4.438;2023-07-13T15:32:41;24.90;99.90
26081;DHT22;13991;51.174;4.438;2023-07-13T15:35:26;24.70;99.90
26081;DHT22;13991;51.174;4.438;2023-07-13T15:37:54;24.60;99.90
26081;DHT22;13991;51.174;4.438;2023-07-13T15:40:20;24.30;99.90
26081;DHT22;13991;51.174;4.438;2023-07-13T15:42:49;23.90;99.90
26081;DHT22;13991;51.174;4.438;2023-07-13T15:45:16;24.00;99.90
26081;DHT22;13991;51.174;4.438;2023-07-13T15:47:44;23.90;99.90
26081;DHT22;13991;51.174;4.438;2023-07-13T15:50:16;23.80;99.90
26081;DHT22;13991;51.174;4.438;2023-07-13T15:52:49;23.70;99.90
26081;DHT22;13991;51.174;4.438;2023-07-13T15:55:15;23.60;99.90
26081;DHT22;13991;51.174;4.438;2023-07-13T15:57:52;23.10;99.90
26081;DHT22;13991;51.174;4.438;2023-07-13T16:02:46;23.10;99.90
26081;DHT22;13991;51.174;4.438;2023-07-13T16:05:22;23.20;99.90
26081;DHT22;13991;51.174;4.438;2023-07-13T16:07:51;23.10;99.90
26081;DHT22;13991;51.174;4.438;2023-07-13T16:10:34;23.20;99.90
26081;DHT22;13991;51.174;4.438;2023-07-13T16:13:01;23.70;99.90
26081;DHT22;13991;51.174;4.438;2023-07-13T16:15:28;23.50;99.90
26081;DHT22;13991;51.174;4.438;2023-07-13T16:17:54;23.40;99.90
26081;DHT22;13991;51.174;4.438;2023-07-13T16:20:20;23.40;99.90
26081;DHT22;13991;51.174;4.438;2023-07-13T16:22:52;23.40;99.90
26081;DHT22;13991;51.174;4.438;2023-07-13T16:25:24;23.30;99.90
26081;DHT22;13991;51.174;4.438;2023-07-13T16:27:53;23.20;99.90